sensor_id;sensor_type;location;lat;lon;timestamp;P1;durP1;ratioP1;P2;durP2;ratioP2
15915;SDS011;8057;47.830;-3.870;2023-02-12T09:29:04;21.07;;;18.87;;
15915;SDS011;8057;47.830;-3.870;2023-02-12T09:33:31;20.27;;;18.07;;
15915;SDS011;8057;47.830;-3.870;2023-02-12T09:38:02;20.43;;;18.33;;
15915;SDS011;8057;47.830;-3.870;2023-02-12T09:42:18;21.43;;;19.23;;
15915;SDS011;8057;47.830;-3.870;2023-02-12T09:46:41;21.53;;;19.33;;
15915;SDS011;8057;47.830;-3.870;2023-02-12T09:51:01;22.03;;;19.73;;
15915;SDS011;8057;47.830;-3.870;2023-02-12T09:55:57;19.43;;;17.57;;
15915;SDS011;8057;47.830;-3.870;2023-02-12T10:00:48;19.43;;;17.43;;
15915;SDS011;8057;47.830;-3.870;2023-02-12T10:15:04;21.10;;;18.90;;
15915;SDS011;8057;47.830;-3.870;2023-02-12T10:19:27;18.97;;;17.03;;
15915;SDS011;8057;47.830;-3.870;2023-02-12T10:29:16;19.30;;;17.30;;
15915;SDS011;8057;47.830;-3.870;2023-02-12T10:33:33;20.63;;;18.47;;
15915;SDS011;8057;47.830;-3.870;2023-02-12T10:37:47;19.33;;;17.33;;
15915;SDS011;8057;47.830;-3.870;2023-02-12T10:42:06;18.53;;;16.73;;
15915;SDS011;8057;47.830;-3.870;2023-02-12T10:46:28;19.10;;;17.20;;
15915;SDS011;8057;47.830;-3.870;2023-02-12T10:50:55;19.83;;;17.87;;
15915;SDS011;8057;47.830;-3.870;2023-02-12T10:55:24;19.83;;;17.83;;
15915;SDS011;8057;47.830;-3.870;2023-02-12T10:59:35;17.40;;;15.77;;
15915;SDS011;8057;47.830;-3.870;2023-02-12T11:03:44;18.80;;;17.00;;
15915;SDS011;8057;47.830;-3.870;2023-02-12T11:07:55;18.90;;;17.00;;
15915;SDS011;8057;47.830;-3.870;2023-02-12T11:12:05;18.63;;;16.73;;
15915;SDS011;8057;47.830;-3.870;2023-02-12T11:16:28;19.70;;;17.70;;
15915;SDS011;8057;47.830;-3.870;2023-02-12T11:20:39;19.10;;;17.20;;
15915;SDS011;8057;47.830;-3.870;2023-02-12T11:25:14;22.30;;;17.73;;
15915;SDS011;8057;47.830;-3.870;2023-02-12T11:29:24;19.13;;;16.97;;
15915;SDS011;8057;47.830;-3.870;2023-02-12T11:33:34;19.50;;;17.50;;
15915;SDS011;8057;47.830;-3.870;2023-02-12T11:37:45;19.23;;;17.30;;
15915;SDS011;8057;47.830;-3.870;2023-02-12T11:42:06;19.83;;;17.83;;
15915;SDS011;8057;47.830;-3.870;2023-02-12T11:46:36;19.40;;;17.60;;
15915;SDS011;8057;47.830;-3.870;2023-02-12T11:50:46;19.63;;;17.43;;
15915;SDS011;8057;47.830;-3.870;2023-02-12T11:54:59;20.40;;;18.27;;
15915;SDS011;8057;47.830;-3.870;2023-02-12T11:59:20;20.87;;;18.67;;
15915;SDS011;8057;47.830;-3.870;2023-02-12T12:03:44;21.07;;;18.97;;
15915;SDS011;8057;47.830;-3.870;2023-02-12T12:08:06;21.47;;;19.37;;
15915;SDS011;8057;47.830;-3.870;2023-02-12T12:12:28;19.50;;;17.40;;
15915;SDS011;8057;47.830;-3.870;2023-02-12T12:17:01;19.97;;;18.00;;
15915;SDS011;8057;47.830;-3.870;2023-02-12T12:21:33;20.70;;;18.60;;
15915;SDS011;8057;47.830;-3.870;2023-02-12T12:25:48;20.60;;;18.50;;
15915;SDS011;8057;47.830;-3.870;2023-02-12T12:30:04;20.50;;;18.33;;
15915;SDS011;8057;47.830;-3.870;2023-02-12T12:34:24;19.30;;;17.27;;
15915;SDS011;8057;47.830;-3.870;2023-02-12T12:38:39;19.23;;;17.43;;
15915;SDS011;8057;47.830;-3.870;2023-02-12T12:42:58;19.13;;;16.60;;
15915;SDS011;8057;47.830;-3.870;2023-02-12T12:47:18;19.60;;;17.60;;
15915;SDS011;8057;47.830;-3.870;2023-02-12T12:51:40;19.07;;;17.17;;
15915;SDS011;8057;47.830;-3.870;2023-02-12T13:01:03;19.33;;;17.37;;
15915;SDS011;8057;47.830;-3.870;2023-02-12T13:14:43;19.63;;;17.73;;
15915;SDS011;8057;47.830;-3.870;2023-02-12T13:19:04;20.87;;;18.80;;
15915;SDS011;8057;47.830;-3.870;2023-02-12T13:23:24;19.97;;;17.87;;
15915;SDS011;8057;47.830;-3.870;2023-02-12T13:27:47;20.10;;;18.13;;
15915;SDS011;8057;47.830;-3.870;2023-02-12T13:31:58;19.70;;;17.90;;
15915;SDS011;8057;47.830;-3.870;2023-02-12T13:36:12;20.10;;;18.13;;
15915;SDS011;8057;47.830;-3.870;2023-02-12T13:40:22;21.37;;;19.23;;
15915;SDS011;8057;47.830;-3.870;2023-02-12T13:49:12;20.07;;;18.07;;
15915;SDS011;8057;47.830;-3.870;2023-02-12T13:53:49;21.57;;;19.33;;
15915;SDS011;8057;47.830;-3.870;2023-02-12T14:08:20;20.17;;;18.27;;
15915;SDS011;8057;47.830;-3.870;2023-02-12T14:12:42;20.17;;;18.13;;
15915;SDS011;8057;47.830;-3.870;2023-02-12T14:16:52;20.23;;;18.13;;
15915;SDS011;8057;47.830;-3.870;2023-02-12T14:26:01;20.90;;;18.03;;
15915;SDS011;8057;47.830;-3.870;2023-02-12T14:34:45;20.33;;;18.13;;
15915;SDS011;8057;47.830;-3.870;2023-02-12T14:38:58;21.10;;;18.93;;
15915;SDS011;8057;47.830;-3.870;2023-02-12T14:43:31;20.53;;;18.43;;
15915;SDS011;8057;47.830;-3.870;2023-02-12T14:48:02;22.80;;;20.40;;
15915;SDS011;8057;47.830;-3.870;2023-02-12T14:52:13;22.00;;;19.70;;
15915;SDS011;8057;47.830;-3.870;2023-02-12T14:56:26;20.80;;;18.80;;
15915;SDS011;8057;47.830;-3.870;2023-02-12T15:00:38;22.40;;;20.10;;
15915;SDS011;8057;47.830;-3.870;2023-02-12T15:04:48;21.90;;;19.57;;
15915;SDS011;8057;47.830;-3.870;2023-02-12T15:09:00;21.83;;;19.63;;
15915;SDS011;8057;47.830;-3.870;2023-02-12T15:13:17;20.10;;;17.97;;
15915;SDS011;8057;47.830;-3.870;2023-02-12T15:17:37;20.90;;;18.57;;
15915;SDS011;8057;47.830;-3.870;2023-02-12T15:21:49;20.73;;;18.63;;
15915;SDS011;8057;47.830;-3.870;2023-02-12T15:26:00;23.90;;;19.50;;
15915;SDS011;8057;47.830;-3.870;2023-02-12T15:30:13;22.77;;;20.20;;
15915;SDS011;8057;47.830;-3.870;2023-02-12T15:34:33;22.13;;;19.87;;
15915;SDS011;8057;47.830;-3.870;2023-02-12T15:38:48;20.97;;;18.87;;
15915;SDS011;8057;47.830;-3.870;2023-02-12T15:42:59;22.07;;;19.90;;
15915;SDS011;8057;47.830;-3.870;2023-02-12T15:47:11;22.60;;;20.13;;
15915;SDS011;8057;47.830;-3.870;2023-02-12T15:51:25;22.53;;;20.13;;
15915;SDS011;8057;47.830;-3.870;2023-02-12T15:55:38;22.07;;;19.70;;
15915;SDS011;8057;47.830;-3.870;2023-02-12T15:59:51;23.90;;;21.37;;
15915;SDS011;8057;47.830;-3.870;2023-02-12T16:04:02;25.33;;;20.67;;
15915;SDS011;8057;47.830;-3.870;2023-02-12T16:08:16;22.57;;;20.27;;
15915;SDS011;8057;47.830;-3.870;2023-02-12T16:12:28;23.23;;;19.90;;
15915;SDS011;8057;47.830;-3.870;2023-02-12T16:16:44;23.17;;;20.67;;
15915;SDS011;8057;47.830;-3.870;2023-02-12T16:21:02;22.33;;;20.07;;
15915;SDS011;8057;47.830;-3.870;2023-02-12T16:25:19;24.73;;;21.77;;
15915;SDS011;8057;47.830;-3.870;2023-02-12T16:29:30;25.43;;;21.63;;
15915;SDS011;8057;47.830;-3.870;2023-02-12T16:33:43;24.30;;;21.80;;
15915;SDS011;8057;47.830;-3.870;2023-02-12T16:38:02;27.40;;;21.83;;
15915;SDS011;8057;47.830;-3.870;2023-02-12T16:47:33;23.23;;;20.90;;
15915;SDS011;8057;47.830;-3.870;2023-02-12T16:51:42;25.20;;;22.37;;
15915;SDS011;8057;47.830;-3.870;2023-02-12T16:55:52;26.13;;;23.43;;
15915;SDS011;8057;47.830;-3.870;2023-02-12T17:00:04;25.47;;;22.87;;
15915;SDS011;8057;47.830;-3.870;2023-02-12T17:04:15;24.93;;;21.73;;
15915;SDS011;8057;47.830;-3.870;2023-02-12T17:08:24;26.23;;;23.60;;
15915;SDS011;8057;47.830;-3.870;2023-02-12T17:12:33;27.03;;;23.53;;
15915;SDS011;8057;47.830;-3.870;2023-02-12T17:16:53;25.90;;;23.17;;
15915;SDS011;8057;47.830;-3.870;2023-02-12T17:21:03;26.43;;;23.73;;
15915;SDS011;8057;47.830;-3.870;2023-02-12T17:25:14;26.97;;;24.10;;
15915;SDS011;8057;47.830;-3.870;2023-02-12T17:29:24;26.70;;;22.77;;
15915;SDS011;8057;47.830;-3.870;2023-02-12T17:33:35;25.83;;;22.57;;
15915;SDS011;8057;47.830;-3.870;2023-02-12T17:37:45;26.40;;;23.60;;
15915;SDS011;8057;47.830;-3.870;2023-02-12T17:41:55;25.07;;;22.43;;
15915;SDS011;8057;47.830;-3.870;2023-02-12T17:46:09;26.47;;;23.67;;
15915;SDS011;8057;47.830;-3.870;2023-02-12T17:50:20;27.17;;;23.70;;
15915;SDS011;8057;47.830;-3.870;2023-02-12T17:54:30;25.73;;;22.93;;
15915;SDS011;8057;47.830;-3.870;2023-02-12T17:58:39;25.30;;;22.60;;
15915;SDS011;8057;47.830;-3.870;2023-02-12T18:02:49;26.33;;;23.60;;
15915;SDS011;8057;47.830;-3.870;2023-02-12T18:07:00;25.70;;;22.97;;
15915;SDS011;8057;47.830;-3.870;2023-02-12T18:11:10;26.70;;;24.03;;
15915;SDS011;8057;47.830;-3.870;2023-02-12T18:15:19;27.90;;;25.00;;
15915;SDS011;8057;47.830;-3.870;2023-02-12T18:19:29;26.23;;;23.43;;
15915;SDS011;8057;47.830;-3.870;2023-02-12T18:23:45;25.40;;;22.47;;
15915;SDS011;8057;47.830;-3.870;2023-02-12T18:28:02;26.87;;;22.40;;
15915;SDS011;8057;47.830;-3.870;2023-02-12T18:32:11;26.43;;;23.23;;
15915;SDS011;8057;47.830;-3.870;2023-02-12T18:36:22;30.50;;;26.40;;
15915;SDS011;8057;47.830;-3.870;2023-02-12T18:40:32;25.63;;;22.93;;
15915;SDS011;8057;47.830;-3.870;2023-02-12T18:44:42;27.33;;;24.47;;
15915;SDS011;8057;47.830;-3.870;2023-02-12T18:48:51;31.07;;;27.17;;
15915;SDS011;8057;47.830;-3.870;2023-02-12T18:53:00;26.90;;;24.03;;
15915;SDS011;8057;47.830;-3.870;2023-02-12T18:57:21;27.53;;;24.70;;
15915;SDS011;8057;47.830;-3.870;2023-02-12T19:01:43;28.47;;;24.80;;
15915;SDS011;8057;47.830;-3.870;2023-02-12T19:06:00;26.93;;;24.17;;
15915;SDS011;8057;47.830;-3.870;2023-02-12T19:10:10;29.33;;;25.67;;
15915;SDS011;8057;47.830;-3.870;2023-02-12T19:14:22;26.00;;;23.23;;
15915;SDS011;8057;47.830;-3.870;2023-02-12T19:18:32;26.90;;;22.33;;
15915;SDS011;8057;47.830;-3.870;2023-02-12T19:22:41;26.10;;;23.37;;
15915;SDS011;8057;47.830;-3.870;2023-02-12T19:26:53;25.03;;;22.50;;
15915;SDS011;8057;47.830;-3.870;2023-02-12T19:31:13;26.47;;;22.87;;
15915;SDS011;8057;47.830;-3.870;2023-02-12T19:35:25;23.93;;;21.47;;
15915;SDS011;8057;47.830;-3.870;2023-02-12T19:39:34;26.37;;;23.67;;
15915;SDS011;8057;47.830;-3.870;2023-02-12T19:43:43;26.30;;;22.73;;
15915;SDS011;8057;47.830;-3.870;2023-02-12T19:47:54;31.33;;;26.47;;
15915;SDS011;8057;47.830;-3.870;2023-02-12T19:52:03;28.47;;;24.43;;
15915;SDS011;8057;47.830;-3.870;2023-02-12T19:56:13;27.80;;;24.83;;
15915;SDS011;8057;47.830;-3.870;2023-02-12T20:00:23;26.37;;;22.63;;
15915;SDS011;8057;47.830;-3.870;2023-02-12T20:04:35;27.93;;;24.27;;
15915;SDS011;8057;47.830;-3.870;2023-02-12T20:08:44;27.77;;;24.87;;
15915;SDS011;8057;47.830;-3.870;2023-02-12T20:12:54;26.33;;;23.50;;
15915;SDS011;8057;47.830;-3.870;2023-02-12T20:17:03;25.67;;;22.97;;
15915;SDS011;8057;47.830;-3.870;2023-02-12T20:21:16;25.50;;;22.77;;
15915;SDS011;8057;47.830;-3.870;2023-02-12T20:25:28;27.83;;;24.83;;
15915;SDS011;8057;47.830;-3.870;2023-02-12T20:29:37;23.83;;;21.30;;
15915;SDS011;8057;47.830;-3.870;2023-02-12T20:33:47;26.20;;;23.43;;
15915;SDS011;8057;47.830;-3.870;2023-02-12T20:38:02;29.50;;;24.20;;
15915;SDS011;8057;47.830;-3.870;2023-02-12T20:42:12;26.00;;;23.17;;
15915;SDS011;8057;47.830;-3.870;2023-02-12T20:46:31;27.80;;;23.53;;
15915;SDS011;8057;47.830;-3.870;2023-02-12T20:50:46;29.10;;;25.93;;
15915;SDS011;8057;47.830;-3.870;2023-02-12T20:54:57;27.60;;;24.00;;
15915;SDS011;8057;47.830;-3.870;2023-02-12T20:59:07;32.97;;;26.33;;
15915;SDS011;8057;47.830;-3.870;2023-02-12T21:03:16;29.00;;;26.00;;
15915;SDS011;8057;47.830;-3.870;2023-02-12T21:07:25;29.57;;;26.57;;
15915;SDS011;8057;47.830;-3.870;2023-02-12T21:11:36;28.67;;;25.67;;
15915;SDS011;8057;47.830;-3.870;2023-02-12T21:15:48;29.63;;;26.57;;
15915;SDS011;8057;47.830;-3.870;2023-02-12T21:19:57;28.70;;;25.67;;
15915;SDS011;8057;47.830;-3.870;2023-02-12T21:24:08;27.70;;;24.77;;
15915;SDS011;8057;47.830;-3.870;2023-02-12T21:33:41;26.97;;;24.07;;
15915;SDS011;8057;47.830;-3.870;2023-02-12T22:36:47;25.47;;;22.80;;
15915;SDS011;8057;47.830;-3.870;2023-02-12T22:40:56;23.33;;;21.03;;
15915;SDS011;8057;47.830;-3.870;2023-02-12T22:45:06;24.80;;;22.13;;
15915;SDS011;8057;47.830;-3.870;2023-02-12T22:49:16;24.37;;;21.77;;
15915;SDS011;8057;47.830;-3.870;2023-02-12T22:53:27;25.07;;;21.03;;
15915;SDS011;8057;47.830;-3.870;2023-02-12T22:57:36;26.27;;;22.40;;
15915;SDS011;8057;47.830;-3.870;2023-02-12T23:01:45;24.03;;;21.53;;
15915;SDS011;8057;47.830;-3.870;2023-02-12T23:05:55;24.77;;;22.20;;
15915;SDS011;8057;47.830;-3.870;2023-02-12T23:10:09;25.53;;;22.83;;
15915;SDS011;8057;47.830;-3.870;2023-02-12T23:14:19;25.43;;;22.53;;
15915;SDS011;8057;47.830;-3.870;2023-02-12T23:18:29;25.70;;;22.97;;
15915;SDS011;8057;47.830;-3.870;2023-02-12T23:22:39;25.07;;;22.37;;
15915;SDS011;8057;47.830;-3.870;2023-02-12T23:26:50;24.37;;;21.77;;
15915;SDS011;8057;47.830;-3.870;2023-02-12T23:31:00;24.90;;;22.37;;
15915;SDS011;8057;47.830;-3.870;2023-02-12T23:35:09;24.70;;;22.07;;
15915;SDS011;8057;47.830;-3.870;2023-02-12T23:39:18;26.60;;;22.30;;
15915;SDS011;8057;47.830;-3.870;2023-02-12T23:43:29;24.03;;;21.43;;
15915;SDS011;8057;47.830;-3.870;2023-02-12T23:47:39;24.03;;;21.43;;
15915;SDS011;8057;47.830;-3.870;2023-02-12T23:51:48;25.40;;;22.70;;
15915;SDS011;8057;47.830;-3.870;2023-02-12T23:56:01;25.20;;;22.57;;
